CheckWX is a tool to help pilots better visualize weather data.  It is not intended as a substitute for an official pre-flight weather briefing.

14:42:49 UTC

08D METAR
Stanley Municipal Airport
Stanley, North Dakota, USA
Current

8 mins ago

K08D 201435Z AUTO 10010KT 10SM CLR 11/M02 A3014 RMK AO2
Observed
May-20 @ 14:35 UTC
Wind
  • 100° at 10 KTS
Visibility
10 SM
Flight Rules
VFR
Cloud Levels
  • Clear skies
Temperature
11°C / 52°F
Dewpoint
-2°C / 28°F
Humidity
41%
Altimeter
30.14" Hg
Pressure
1020.62 hPa
Previous

28 mins ago

K08D 201415Z AUTO 10011KT 10SM CLR 11/M02 A3014 RMK AO2
Observed
May-20 @ 14:15 UTC
Wind
  • 100° at 11 KTS
Visibility
10 SM
Flight Rules
VFR
Cloud Levels
  • Clear skies
Temperature
11°C / 52°F
Dewpoint
-2°C / 28°F
Humidity
41%
Altimeter
30.14" Hg
Pressure
1020.62 hPa
Previous

48 mins ago

K08D 201355Z AUTO 08008KT 10SM CLR 09/M00 A3014 RMK AO2
Observed
May-20 @ 13:55 UTC
Wind
  • 080° at 8 KTS
Visibility
10 SM
Flight Rules
VFR
Cloud Levels
  • Clear skies
Temperature
C / 48°F
Dewpoint
C / 32°F
Humidity
54%
Altimeter
30.14" Hg
Pressure
1020.62 hPa